Time;durP1;ratioP1;P1;durP2;ratioP2;P2;SDS_P1;SDS_P2;PMS_P1;PMS_P2;Temp;Humidity;BMP_temperature;BMP_pressure;BME280_temperature;BME280_humidity;BME280_pressure;Samples;Min_cycle;Max_cycle;Signal;HPM_P1;HPM_P2
2023/01/28 00:04:17;;;;;;;7.22;1.83;;;3.60;45.70;;;;;;20638924;28;20046;-45
2023/01/28 00:14:18;;;;;;;3.28;1.88;;;3.60;31.40;;;;;;20664261;28;20437;-46
2023/01/28 00:24:19;;;;;;;7.07;2.85;;;3.60;31.50;;;;;;20651547;28;20077;-45
2023/01/28 00:34:21;;;;;;;4.13;1.80;;;3.60;33.80;;;;;;20654212;28;20490;-45
2023/01/28 00:44:22;;;;;;;4.55;2.30;;;3.60;31.80;;;;;;20666632;28;20046;-45
2023/01/28 00:54:23;;;;;;;3.50;2.03;;;3.60;31.60;;;;;;20664745;28;20038;-45
2023/01/28 01:04:26;;;;;;;3.92;1.30;;;3.50;32.70;;;;;;20663760;28;20053;-45
2023/01/28 01:14:27;;;;;;;5.10;2.28;;;3.50;31.50;;;;;;20663564;28;20391;-45
2023/01/28 01:24:28;;;;;;;5.95;2.22;;;3.50;29.90;;;;;;20663948;28;20053;-45
2023/01/28 01:34:29;;;;;;;7.15;2.38;;;3.50;24.20;;;;;;20656538;28;20349;-45
2023/01/28 01:44:53;;;;;;;4.93;2.03;;;3.40;16.60;;;;;;20662983;28;20108;-45
2023/01/28 01:54:58;;;;;;;3.47;1.58;;;3.40;17.20;;;;;;20658878;28;20042;-45
2023/01/28 02:04:59;;;;;;;3.70;1.92;;;3.40;17.30;;;;;;20658860;28;20116;-45
2023/01/28 02:15:09;;;;;;;3.03;1.42;;;3.40;18.90;;;;;;20655709;28;20034;-45
2023/01/28 02:25:28;;;;;;;5.13;1.83;;;3.30;20.80;;;;;;20640387;28;20045;-45
2023/01/28 02:35:50;;;;;;;2.38;1.08;;;3.30;21.00;;;;;;20642039;28;20887;-45
2023/01/28 02:56:44;;;;;;;2.80;1.58;;;3.30;23.80;;;;;;20636297;28;20890;-45
2023/01/28 03:06:52;;;;;;;4.15;2.00;;;3.30;14.60;;;;;;20641259;28;21879;-45
2023/01/28 03:38:21;;;;;;;2.47;1.13;;;3.30;22.00;;;;;;20656988;28;21877;-45
2023/01/28 03:48:24;;;;;;;6.90;3.08;;;3.30;20.10;;;;;;20663516;28;20272;-45
2023/01/28 03:58:39;;;;;;;3.85;1.70;;;3.30;19.80;;;;;;20657350;28;20061;-45
2023/01/28 04:08:44;;;;;;;4.50;1.95;;;3.20;20.00;;;;;;20649026;28;20360;-45
2023/01/28 04:18:46;;;;;;;3.78;1.67;;;3.20;20.00;;;;;;20671035;28;20045;-45
2023/01/28 04:28:47;;;;;;;3.05;1.95;;;3.20;17.10;;;;;;20661611;28;20079;-45
2023/01/28 04:38:48;;;;;;;4.43;2.50;;;3.20;25.00;;;;;;20666082;28;20042;-45
2023/01/28 04:48:49;;;;;;;5.75;2.75;;;3.20;17.70;;;;;;20668467;28;20048;-45
2023/01/28 04:58:50;;;;;;;4.80;2.20;;;3.10;12.70;;;;;;20655054;28;20057;-45
2023/01/28 05:08:51;;;;;;;4.05;1.67;;;3.10;13.50;;;;;;20658593;28;20049;-45
2023/01/28 05:18:52;;;;;;;3.80;2.35;;;3.00;14.30;;;;;;20655833;28;20038;-45
2023/01/28 05:28:53;;;;;;;5.20;2.15;;;3.00;14.00;;;;;;20657386;28;20412;-45
2023/01/28 05:38:54;;;;;;;2.95;1.92;;;3.00;15.00;;;;;;20669026;28;20517;-45
2023/01/28 05:48:55;;;;;;;3.50;1.95;;;3.00;11.50;;;;;;20659792;28;20878;-45
2023/01/28 05:58:56;;;;;;;13.80;1.95;;;3.00;9.60;;;;;;20664402;28;20092;-45
2023/01/28 06:08:57;;;;;;;3.53;1.20;;;2.90;14.50;;;;;;20645110;28;20202;-45
2023/01/28 06:18:58;;;;;;;5.07;2.00;;;3.00;18.50;;;;;;20638538;28;20042;-45
2023/01/28 06:28:59;;;;;;;2.80;1.38;;;3.00;20.90;;;;;;20640580;28;20042;-45
2023/01/28 06:39:00;;;;;;;4.57;1.88;;;3.00;23.70;;;;;;20646233;28;20038;-45
2023/01/28 06:49:01;;;;;;;3.88;2.03;;;2.90;21.20;;;;;;20640257;28;20053;-45
2023/01/28 06:59:02;;;;;;;4.53;2.70;;;3.00;12.80;;;;;;20650251;28;20089;-45
2023/01/28 07:09:03;;;;;;;4.55;2.13;;;2.90;14.30;;;;;;20653853;28;20054;-45
2023/01/28 07:19:04;;;;;;;3.65;1.58;;;2.90;16.60;;;;;;20653459;28;20034;-45
2023/01/28 07:29:05;;;;;;;2.55;1.23;;;2.80;14.30;;;;;;20647705;28;20203;-45
2023/01/28 07:39:06;;;;;;;3.88;1.83;;;2.90;12.10;;;;;;20658553;28;20038;-45
2023/01/28 07:49:07;;;;;;;5.00;2.15;;;2.80;18.80;;;;;;20674815;28;20500;-45
2023/01/28 07:59:08;;;;;;;4.43;2.20;;;2.90;23.80;;;;;;20657753;28;20497;-45
2023/01/28 08:09:09;;;;;;;6.10;2.03;;;2.80;25.40;;;;;;20651667;28;20053;-45
2023/01/28 08:19:10;;;;;;;2.63;1.52;;;2.90;25.40;;;;;;20652745;28;20037;-45
2023/01/28 08:29:11;;;;;;;2.47;1.45;;;2.80;26.30;;;;;;20654408;28;20037;-45
2023/01/28 08:39:12;;;;;;;3.60;2.25;;;2.80;19.90;;;;;;20655017;28;20030;-45
2023/01/28 08:49:13;;;;;;;4.95;1.67;;;2.90;17.50;;;;;;20645501;28;20046;-45
2023/01/28 08:59:14;;;;;;;2.28;0.73;;;3.00;18.10;;;;;;20655461;28;20551;-45
2023/01/28 09:09:15;;;;;;;3.53;1.65;;;3.00;6.30;;;;;;20652336;28;20383;-46
2023/01/28 09:19:16;;;;;;;3.47;0.93;;;3.10;5.30;;;;;;20644511;28;20393;-45
2023/01/28 09:29:17;;;;;;;2.08;1.05;;;3.40;2.40;;;;;;20648399;28;20048;-45
2023/01/28 09:39:18;;;;;;;2.13;0.68;;;3.60;1.00;;;;;;20647349;28;20046;-45
2023/01/28 09:49:35;;;;;;;1.50;0.70;;;3.80;1.40;;;;;;20652064;28;20053;-45
2023/01/28 09:59:38;;;;;;;1.95;0.98;;;4.00;1.00;;;;;;20640937;28;20058;-45
2023/01/28 10:09:58;;;;;;;1.90;1.35;;;3.90;1.00;;;;;;20639414;28;20121;-45
2023/01/28 10:20:12;;;;;;;3.15;1.38;;;3.90;1.00;;;;;;20638958;28;20796;-45
2023/01/28 10:30:16;;;;;;;1.95;0.70;;;4.10;1.00;;;;;;20642167;28;20049;-45
2023/01/28 10:40:18;;;;;;;2.50;0.80;;;4.30;1.00;;;;;;20668563;28;20390;-45
2023/01/28 10:50:25;;;;;;;1.08;0.45;;;4.70;1.00;;;;;;20653315;28;20390;-45
2023/01/28 11:00:44;;;;;;;;;;;5.00;1.00;;;;;;20664017;28;20585;-45
2023/01/28 11:10:47;;;;;;;2.28;1.08;;;5.50;1.00;;;;;;20652208;28;19922;-45
2023/01/28 11:20:58;;;;;;;2.00;1.05;;;6.00;1.00;;;;;;20670009;28;20030;-45
2023/01/28 11:31:02;;;;;;;1.52;0.70;;;6.80;1.00;;;;;;20664145;28;20807;-45
2023/01/28 11:41:03;;;;;;;1.75;0.60;;;7.30;1.00;;;;;;20671139;28;20034;-45
2023/01/28 11:51:22;;;;;;;1.75;0.60;;;7.00;1.00;;;;;;20652514;28;20050;-46
2023/01/28 12:01:38;;;;;;;0.35;0.17;;;7.50;1.00;;;;;;20674018;28;20499;-46
2023/01/28 12:12:11;;;;;;;1.45;0.70;;;8.20;1.00;;;;;;20669632;28;21934;-45
2023/01/28 12:22:31;;;;;;;0.65;0.30;;;8.30;1.00;;;;;;20672330;28;21954;-45
2023/01/28 12:32:47;;;;;;;1.05;0.40;;;8.50;1.00;;;;;;20644050;28;20042;-46
2023/01/28 12:42:53;;;;;;;5.95;0.70;;;9.00;1.00;;;;;;20661630;28;20369;-45
2023/01/28 12:53:02;;;;;;;2.22;0.93;;;9.20;1.00;;;;;;20665542;28;20049;-46
2023/01/28 13:03:25;;;;;;;3.22;0.85;;;9.80;1.00;;;;;;20666045;28;20924;-45
2023/01/28 13:13:38;;;;;;;1.55;0.82;;;10.10;1.00;;;;;;20667140;28;20867;-45
2023/01/28 13:23:43;;;;;;;0.73;0.30;;;10.10;1.00;;;;;;20660867;28;20184;-46
2023/01/28 13:33:53;;;;;;;1.33;0.63;;;10.20;1.00;;;;;;20659319;28;20346;-46
2023/01/28 13:43:57;;;;;;;2.15;0.73;;;10.20;1.00;;;;;;20658390;28;20101;-46
2023/01/28 13:54:17;;;;;;;2.83;0.70;;;10.40;1.00;;;;;;20636591;28;20038;-45
2023/01/28 14:04:43;;;;;;;2.53;0.90;;;10.80;1.00;;;;;;20645032;28;20077;-45
2023/01/28 14:15:03;;;;;;;1.65;0.60;;;9.30;1.00;;;;;;20642045;28;21127;-45
2023/01/28 14:25:13;;;;;;;2.08;1.20;;;8.70;1.00;;;;;;20649953;28;20938;-45
2023/01/28 14:35:19;;;;;;;2.70;1.10;;;8.30;1.00;;;;;;20666806;28;20093;-44
2023/01/28 14:46:18;;;;;;;2.95;1.25;;;7.90;1.00;;;;;;20645269;28;20076;-45
2023/01/28 14:56:43;;;;;;;2.50;0.93;;;7.40;1.00;;;;;;20570922;28;20872;-44
2023/01/28 15:06:44;;;;;;;3.97;1.35;;;6.90;1.00;;;;;;20649644;28;20713;-44
2023/01/28 15:16:49;;;;;;;3.08;1.23;;;6.50;1.00;;;;;;20647246;28;20037;-45
2023/01/28 15:26:50;;;;;;;2.65;0.98;;;6.30;1.00;;;;;;20655954;28;20046;-44
2023/01/28 15:36:51;;;;;;;2.10;0.90;;;6.00;1.00;;;;;;20672193;28;20038;-44
2023/01/28 15:46:52;;;;;;;3.78;1.50;;;6.10;1.00;;;;;;20674727;28;20034;-44
2023/01/28 15:56:53;;;;;;;1.40;0.85;;;6.00;1.00;;;;;;20673736;28;20038;-44
2023/01/28 16:06:57;;;;;;;5.72;1.60;;;6.10;1.00;;;;;;20671475;28;20050;-44
2023/01/28 16:16:58;;;;;;;5.97;3.17;;;6.00;1.00;;;;;;20660588;28;21899;-44
2023/01/28 16:27:08;;;;;;;7.53;3.75;;;6.00;1.00;;;;;;20659681;28;20541;-44
2023/01/28 16:37:09;;;;;;;6.47;4.10;;;5.90;1.00;;;;;;20667938;28;20100;-45
2023/01/28 16:47:10;;;;;;;11.57;5.38;;;5.90;1.00;;;;;;20670563;28;20046;-44
2023/01/28 16:57:18;;;;;;;4.65;2.20;;;5.80;1.00;;;;;;20657527;28;20073;-45
2023/01/28 17:07:19;;;;;;;3.67;2.45;;;5.70;1.00;;;;;;20660523;28;20057;-45
2023/01/28 17:17:20;;;;;;;6.32;2.83;;;5.70;1.00;;;;;;20673573;28;20041;-45
2023/01/28 17:27:21;;;;;;;5.80;2.42;;;5.60;1.00;;;;;;20675117;28;20532;-44
2023/01/28 17:37:22;;;;;;;5.55;3.65;;;5.60;1.00;;;;;;20669072;28;20092;-45
2023/01/28 17:47:23;;;;;;;5.85;2.72;;;5.60;1.00;;;;;;20677879;28;20037;-44
2023/01/28 17:57:24;;;;;;;5.15;2.92;;;5.40;1.00;;;;;;20668559;28;20137;-45
2023/01/28 18:07:25;;;;;;;8.73;4.10;;;5.40;1.00;;;;;;20652939;28;20069;-44
2023/01/28 18:17:28;;;;;;;9.25;4.32;;;5.40;1.00;;;;;;20650959;28;20541;-44
2023/01/28 18:27:29;;;;;;;9.27;4.68;;;5.30;1.00;;;;;;20659182;28;20097;-45
2023/01/28 18:37:30;;;;;;;18.15;9.10;;;5.20;1.00;;;;;;20632556;28;20037;-44
2023/01/28 18:47:31;;;;;;;6.35;3.28;;;5.30;1.00;;;;;;20649175;28;20038;-44
2023/01/28 18:57:32;;;;;;;6.00;2.85;;;5.00;1.00;;;;;;20658412;28;20069;-44
2023/01/28 19:07:33;;;;;;;7.18;3.88;;;5.10;1.00;;;;;;20659289;28;20046;-44
2023/01/28 19:17:35;;;;;;;6.53;3.05;;;5.00;3.20;;;;;;20680378;28;20284;-44
2023/01/28 19:27:36;;;;;;;8.30;3.53;;;5.10;4.60;;;;;;20677903;28;20046;-45
2023/01/28 19:37:37;;;;;;;7.50;4.70;;;5.10;3.70;;;;;;20677531;28;20045;-45
2023/01/28 19:47:39;;;;;;;10.20;4.03;;;5.10;4.60;;;;;;20677872;28;20049;-44
2023/01/28 19:57:41;;;;;;;7.82;4.03;;;4.90;6.90;;;;;;20668514;28;20367;-45
2023/01/28 20:07:42;;;;;;;9.90;4.45;;;4.90;13.60;;;;;;20654067;28;20042;-44
2023/01/28 20:17:43;;;;;;;10.50;5.63;;;4.90;10.30;;;;;;20654711;28;20038;-45
2023/01/28 20:27:46;;;;;;;7.38;5.13;;;4.90;4.90;;;;;;20651038;28;20050;-44
2023/01/28 20:37:47;;;;;;;17.40;7.45;;;4.80;8.80;;;;;;20661107;28;20138;-45
2023/01/28 20:47:48;;;;;;;15.88;6.10;;;4.70;12.60;;;;;;20646488;28;20042;-45
2023/01/28 20:57:51;;;;;;;12.55;6.30;;;4.60;19.00;;;;;;20665956;28;20576;-44
2023/01/28 21:07:52;;;;;;;7.90;3.88;;;4.30;25.20;;;;;;20649199;28;20038;-44
2023/01/28 21:17:53;;;;;;;12.70;6.85;;;4.30;34.20;;;;;;20653397;28;20034;-44
2023/01/28 21:27:54;;;;;;;11.98;6.90;;;4.20;44.00;;;;;;20643540;28;20034;-44
2023/01/28 21:37:55;;;;;;;8.85;4.88;;;4.20;50.80;;;;;;20642824;28;20041;-44
2023/01/28 21:47:56;;;;;;;11.50;6.32;;;4.20;63.70;;;;;;20638275;28;20038;-44
2023/01/28 21:59:26;;;;;;;10.55;6.43;;;4.20;60.80;;;;;;20643201;28;20097;-44
2023/01/28 22:08:18;;;;;;;8.30;5.65;;;4.20;61.40;;;;;;20644316;28;20418;-44
2023/01/28 22:18:19;;;;;;;12.73;5.00;;;4.20;70.40;;;;;;20643988;28;20684;-44
2023/01/28 22:28:20;;;;;;;10.38;5.93;;;4.20;67.10;;;;;;20653991;28;20437;-44
2023/01/28 22:38:21;;;;;;;6.75;4.65;;;4.20;69.90;;;;;;20653530;28;20104;-44
2023/01/28 22:48:22;;;;;;;9.85;6.05;;;4.20;66.60;;;;;;20677487;28;20042;-44
2023/01/28 22:58:23;;;;;;;15.80;6.00;;;4.30;61.80;;;;;;20680382;28;20042;-44
2023/01/28 23:08:25;;;;;;;10.55;5.30;;;4.20;60.80;;;;;;20647000;28;20513;-44
2023/01/28 23:28:46;;;;;;;15.23;7.28;;;4.10;60.80;;;;;;20659261;28;20038;-44
2023/01/28 23:38:47;;;;;;;12.90;7.15;;;4.20;66.40;;;;;;20638907;28;20042;-45
2023/01/28 23:48:48;;;;;;;9.05;5.07;;;4.20;66.60;;;;;;20653740;28;20088;-44
2023/01/28 23:58:49;;;;;;;11.50;5.05;;;4.30;51.60;;;;;;20664037;28;20464;-44
